sensor_id;sensor_type;location;lat;lon;timestamp;P1;durP1;ratioP1;P2;durP2;ratioP2
77589;SDS011;66746;51.328;12.332;2023-05-10T00:01:35;4.53;;;4.13;;
77589;SDS011;66746;51.328;12.332;2023-05-10T00:04:02;5.35;;;3.90;;
77589;SDS011;66746;51.328;12.332;2023-05-10T00:06:28;5.75;;;3.78;;
77589;SDS011;66746;51.328;12.332;2023-05-10T00:08:55;4.95;;;4.55;;
77589;SDS011;66746;51.328;12.332;2023-05-10T00:11:21;6.68;;;4.10;;
77589;SDS011;66746;51.328;12.332;2023-05-10T00:13:48;6.15;;;3.83;;
77589;SDS011;66746;51.328;12.332;2023-05-10T00:16:16;4.38;;;3.83;;
77589;SDS011;66746;51.328;12.332;2023-05-10T00:18:42;4.72;;;3.47;;
77589;SDS011;66746;51.328;12.332;2023-05-10T00:21:09;5.05;;;3.72;;
77589;SDS011;66746;51.328;12.332;2023-05-10T00:23:35;6.60;;;3.92;;
77589;SDS011;66746;51.328;12.332;2023-05-10T00:26:02;4.93;;;4.32;;
77589;SDS011;66746;51.328;12.332;2023-05-10T00:28:28;5.38;;;4.00;;
77589;SDS011;66746;51.328;12.332;2023-05-10T00:30:55;5.82;;;4.07;;
77589;SDS011;66746;51.328;12.332;2023-05-10T00:33:23;6.13;;;3.65;;
77589;SDS011;66746;51.328;12.332;2023-05-10T00:35:50;5.60;;;3.80;;
77589;SDS011;66746;51.328;12.332;2023-05-10T00:38:16;6.78;;;3.97;;
77589;SDS011;66746;51.328;12.332;2023-05-10T00:40:42;5.75;;;4.10;;
77589;SDS011;66746;51.328;12.332;2023-05-10T00:43:17;5.30;;;4.22;;
77589;SDS011;66746;51.328;12.332;2023-05-10T00:45:43;5.05;;;3.20;;
77589;SDS011;66746;51.328;12.332;2023-05-10T00:48:10;5.30;;;4.22;;
77589;SDS011;66746;51.328;12.332;2023-05-10T00:50:38;6.80;;;3.72;;
77589;SDS011;66746;51.328;12.332;2023-05-10T00:53:05;5.30;;;4.63;;
77589;SDS011;66746;51.328;12.332;2023-05-10T00:55:32;5.32;;;4.20;;
77589;SDS011;66746;51.328;12.332;2023-05-10T00:57:58;5.20;;;4.70;;
77589;SDS011;66746;51.328;12.332;2023-05-10T01:00:25;5.18;;;4.10;;
77589;SDS011;66746;51.328;12.332;2023-05-10T01:02:52;6.55;;;4.70;;
77589;SDS011;66746;51.328;12.332;2023-05-10T01:05:21;6.05;;;4.15;;
77589;SDS011;66746;51.328;12.332;2023-05-10T01:07:49;6.35;;;4.38;;
77589;SDS011;66746;51.328;12.332;2023-05-10T01:10:15;5.63;;;3.65;;
77589;SDS011;66746;51.328;12.332;2023-05-10T01:12:43;6.10;;;3.80;;
77589;SDS011;66746;51.328;12.332;2023-05-10T01:15:13;4.72;;;3.90;;
77589;SDS011;66746;51.328;12.332;2023-05-10T01:17:44;6.75;;;4.25;;
77589;SDS011;66746;51.328;12.332;2023-05-10T01:20:12;4.55;;;4.13;;
77589;SDS011;66746;51.328;12.332;2023-05-10T01:26:02;4.15;;;3.72;;
77589;SDS011;66746;51.328;12.332;2023-05-10T01:28:45;6.05;;;4.10;;
77589;SDS011;66746;51.328;12.332;2023-05-10T01:31:49;5.35;;;3.78;;
77589;SDS011;66746;51.328;12.332;2023-05-10T01:34:35;5.40;;;4.07;;
77589;SDS011;66746;51.328;12.332;2023-05-10T01:37:15;5.45;;;4.53;;
77589;SDS011;66746;51.328;12.332;2023-05-10T01:39:47;5.15;;;3.75;;
77589;SDS011;66746;51.328;12.332;2023-05-10T01:42:23;4.70;;;3.88;;
77589;SDS011;66746;51.328;12.332;2023-05-10T01:44:53;6.18;;;3.63;;
77589;SDS011;66746;51.328;12.332;2023-05-10T01:47:27;4.97;;;4.32;;
77589;SDS011;66746;51.328;12.332;2023-05-10T01:50:01;5.13;;;4.18;;
77589;SDS011;66746;51.328;12.332;2023-05-10T01:52:32;5.53;;;4.15;;
77589;SDS011;66746;51.328;12.332;2023-05-10T01:55:04;5.65;;;4.53;;
77589;SDS011;66746;51.328;12.332;2023-05-10T01:57:35;4.53;;;4.10;;
77589;SDS011;66746;51.328;12.332;2023-05-10T02:00:03;6.40;;;4.25;;
77589;SDS011;66746;51.328;12.332;2023-05-10T02:02:44;4.20;;;3.47;;
77589;SDS011;66746;51.328;12.332;2023-05-10T02:05:12;4.57;;;4.10;;
77589;SDS011;66746;51.328;12.332;2023-05-10T02:07:43;5.88;;;4.50;;
77589;SDS011;66746;51.328;12.332;2023-05-10T02:10:11;5.57;;;4.25;;
77589;SDS011;66746;51.328;12.332;2023-05-10T02:12:41;6.38;;;3.95;;
77589;SDS011;66746;51.328;12.332;2023-05-10T02:15:10;5.82;;;4.07;;
77589;SDS011;66746;51.328;12.332;2023-05-10T02:17:38;5.57;;;4.20;;
77589;SDS011;66746;51.328;12.332;2023-05-10T02:20:08;5.15;;;4.03;;
77589;SDS011;66746;51.328;12.332;2023-05-10T02:22:36;10.23;;;4.25;;
77589;SDS011;66746;51.328;12.332;2023-05-10T02:25:04;4.97;;;3.90;;
77589;SDS011;66746;51.328;12.332;2023-05-10T02:27:32;4.47;;;4.07;;
77589;SDS011;66746;51.328;12.332;2023-05-10T02:30:00;5.53;;;4.43;;
77589;SDS011;66746;51.328;12.332;2023-05-10T02:32:27;5.40;;;4.05;;
77589;SDS011;66746;51.328;12.332;2023-05-10T02:34:55;6.22;;;4.22;;
77589;SDS011;66746;51.328;12.332;2023-05-10T02:37:24;5.22;;;4.72;;
77589;SDS011;66746;51.328;12.332;2023-05-10T02:39:52;6.55;;;4.25;;
77589;SDS011;66746;51.328;12.332;2023-05-10T02:42:23;6.70;;;4.47;;
77589;SDS011;66746;51.328;12.332;2023-05-10T02:44:52;5.45;;;4.10;;
77589;SDS011;66746;51.328;12.332;2023-05-10T02:47:20;7.00;;;4.30;;
77589;SDS011;66746;51.328;12.332;2023-05-10T02:49:47;5.95;;;4.50;;
77589;SDS011;66746;51.328;12.332;2023-05-10T02:52:14;5.97;;;4.10;;
77589;SDS011;66746;51.328;12.332;2023-05-10T02:54:47;5.93;;;4.45;;
77589;SDS011;66746;51.328;12.332;2023-05-10T02:57:16;5.97;;;5.18;;
77589;SDS011;66746;51.328;12.332;2023-05-10T02:59:47;5.07;;;3.85;;
77589;SDS011;66746;51.328;12.332;2023-05-10T03:02:14;5.10;;;3.95;;
77589;SDS011;66746;51.328;12.332;2023-05-10T03:04:40;5.25;;;4.55;;
77589;SDS011;66746;51.328;12.332;2023-05-10T03:07:07;5.70;;;4.82;;
77589;SDS011;66746;51.328;12.332;2023-05-10T03:09:34;6.30;;;4.47;;
77589;SDS011;66746;51.328;12.332;2023-05-10T03:12:03;5.03;;;4.43;;
77589;SDS011;66746;51.328;12.332;2023-05-10T03:14:40;5.93;;;4.28;;
77589;SDS011;66746;51.328;12.332;2023-05-10T03:17:15;7.47;;;4.38;;
77589;SDS011;66746;51.328;12.332;2023-05-10T03:19:51;5.85;;;4.18;;
77589;SDS011;66746;51.328;12.332;2023-05-10T03:22:21;6.38;;;3.88;;
77589;SDS011;66746;51.328;12.332;2023-05-10T03:24:51;7.22;;;5.35;;
77589;SDS011;66746;51.328;12.332;2023-05-10T03:27:23;5.95;;;4.53;;
77589;SDS011;66746;51.328;12.332;2023-05-10T03:29:53;5.72;;;4.20;;
77589;SDS011;66746;51.328;12.332;2023-05-10T03:32:20;6.63;;;4.53;;
77589;SDS011;66746;51.328;12.332;2023-05-10T03:34:48;4.80;;;3.90;;
77589;SDS011;66746;51.328;12.332;2023-05-10T03:37:14;6.13;;;4.15;;
77589;SDS011;66746;51.328;12.332;2023-05-10T03:39:41;4.80;;;3.83;;
77589;SDS011;66746;51.328;12.332;2023-05-10T03:42:08;5.65;;;3.70;;
77589;SDS011;66746;51.328;12.332;2023-05-10T03:44:36;5.57;;;4.47;;
77589;SDS011;66746;51.328;12.332;2023-05-10T03:47:03;4.65;;;4.18;;
77589;SDS011;66746;51.328;12.332;2023-05-10T03:49:29;5.20;;;4.68;;
77589;SDS011;66746;51.328;12.332;2023-05-10T03:51:56;4.93;;;4.32;;
77589;SDS011;66746;51.328;12.332;2023-05-10T03:54:22;7.35;;;5.43;;
77589;SDS011;66746;51.328;12.332;2023-05-10T03:56:49;5.68;;;4.43;;
77589;SDS011;66746;51.328;12.332;2023-05-10T03:59:17;6.35;;;4.18;;
77589;SDS011;66746;51.328;12.332;2023-05-10T04:01:44;5.13;;;4.18;;
77589;SDS011;66746;51.328;12.332;2023-05-10T04:04:11;4.90;;;4.30;;
77589;SDS011;66746;51.328;12.332;2023-05-10T04:06:38;5.70;;;4.40;;
77589;SDS011;66746;51.328;12.332;2023-05-10T04:09:04;5.90;;;5.30;;
77589;SDS011;66746;51.328;12.332;2023-05-10T04:11:31;4.78;;;4.15;;
77589;SDS011;66746;51.328;12.332;2023-05-10T04:13:57;4.35;;;3.92;;
77589;SDS011;66746;51.328;12.332;2023-05-10T04:16:24;5.05;;;4.55;;
77589;SDS011;66746;51.328;12.332;2023-05-10T04:18:52;4.75;;;3.42;;
77589;SDS011;66746;51.328;12.332;2023-05-10T04:21:18;5.95;;;4.72;;
77589;SDS011;66746;51.328;12.332;2023-05-10T04:23:45;6.85;;;4.47;;
77589;SDS011;66746;51.328;12.332;2023-05-10T04:26:12;6.15;;;4.53;;
77589;SDS011;66746;51.328;12.332;2023-05-10T04:28:38;6.30;;;4.97;;
77589;SDS011;66746;51.328;12.332;2023-05-10T04:31:05;7.18;;;4.57;;
77589;SDS011;66746;51.328;12.332;2023-05-10T04:33:33;6.45;;;4.00;;
77589;SDS011;66746;51.328;12.332;2023-05-10T04:36:01;5.20;;;4.60;;
77589;SDS011;66746;51.328;12.332;2023-05-10T04:38:28;4.28;;;3.88;;
77589;SDS011;66746;51.328;12.332;2023-05-10T04:41:03;6.72;;;4.50;;
77589;SDS011;66746;51.328;12.332;2023-05-10T04:43:29;5.57;;;3.75;;
77589;SDS011;66746;51.328;12.332;2023-05-10T04:45:56;4.95;;;4.35;;
77589;SDS011;66746;51.328;12.332;2023-05-10T04:48:22;5.47;;;4.75;;
77589;SDS011;66746;51.328;12.332;2023-05-10T04:50:49;6.07;;;4.28;;
77589;SDS011;66746;51.328;12.332;2023-05-10T04:53:17;5.70;;;4.80;;
77589;SDS011;66746;51.328;12.332;2023-05-10T04:55:43;5.88;;;4.30;;
77589;SDS011;66746;51.328;12.332;2023-05-10T04:58:09;4.38;;;3.47;;
77589;SDS011;66746;51.328;12.332;2023-05-10T05:00:36;6.35;;;3.85;;
77589;SDS011;66746;51.328;12.332;2023-05-10T05:03:02;5.80;;;3.40;;
77589;SDS011;66746;51.328;12.332;2023-05-10T05:05:29;7.80;;;3.67;;
77589;SDS011;66746;51.328;12.332;2023-05-10T05:07:56;4.65;;;3.85;;
77589;SDS011;66746;51.328;12.332;2023-05-10T05:10:23;3.63;;;3.17;;
77589;SDS011;66746;51.328;12.332;2023-05-10T05:12:51;5.50;;;5.03;;
77589;SDS011;66746;51.328;12.332;2023-05-10T05:15:17;6.57;;;4.15;;
77589;SDS011;66746;51.328;12.332;2023-05-10T05:17:44;4.13;;;3.72;;
77589;SDS011;66746;51.328;12.332;2023-05-10T05:20:10;5.30;;;4.40;;
77589;SDS011;66746;51.328;12.332;2023-05-10T05:22:37;5.43;;;4.85;;
77589;SDS011;66746;51.328;12.332;2023-05-10T05:25:04;4.93;;;4.07;;
77589;SDS011;66746;51.328;12.332;2023-05-10T05:27:33;5.82;;;3.53;;
77589;SDS011;66746;51.328;12.332;2023-05-10T05:29:59;11.52;;;4.03;;
77589;SDS011;66746;51.328;12.332;2023-05-10T05:32:25;4.78;;;4.28;;
77589;SDS011;66746;51.328;12.332;2023-05-10T05:34:52;4.88;;;3.70;;
77589;SDS011;66746;51.328;12.332;2023-05-10T05:37:19;6.35;;;3.90;;
77589;SDS011;66746;51.328;12.332;2023-05-10T05:39:46;4.93;;;3.83;;
77589;SDS011;66746;51.328;12.332;2023-05-10T05:42:13;7.22;;;4.03;;
77589;SDS011;66746;51.328;12.332;2023-05-10T05:44:41;4.50;;;3.40;;
77589;SDS011;66746;51.328;12.332;2023-05-10T05:47:09;4.55;;;3.47;;
77589;SDS011;66746;51.328;12.332;2023-05-10T05:49:36;5.07;;;4.57;;
77589;SDS011;66746;51.328;12.332;2023-05-10T05:52:02;5.45;;;4.18;;
77589;SDS011;66746;51.328;12.332;2023-05-10T05:54:30;5.53;;;3.95;;
77589;SDS011;66746;51.328;12.332;2023-05-10T05:57:24;6.45;;;4.57;;
77589;SDS011;66746;51.328;12.332;2023-05-10T05:59:52;6.20;;;3.83;;
77589;SDS011;66746;51.328;12.332;2023-05-10T06:02:19;6.70;;;4.72;;
77589;SDS011;66746;51.328;12.332;2023-05-10T06:04:45;5.18;;;3.78;;
77589;SDS011;66746;51.328;12.332;2023-05-10T06:07:12;4.40;;;3.58;;
77589;SDS011;66746;51.328;12.332;2023-05-10T06:09:38;5.78;;;3.42;;
77589;SDS011;66746;51.328;12.332;2023-05-10T06:12:05;5.25;;;4.13;;
77589;SDS011;66746;51.328;12.332;2023-05-10T06:14:31;4.95;;;4.45;;
77589;SDS011;66746;51.328;12.332;2023-05-10T06:16:59;6.30;;;3.28;;
77589;SDS011;66746;51.328;12.332;2023-05-10T06:19:26;5.70;;;4.10;;
77589;SDS011;66746;51.328;12.332;2023-05-10T06:21:52;5.03;;;4.25;;
77589;SDS011;66746;51.328;12.332;2023-05-10T06:24:19;5.43;;;3.75;;
77589;SDS011;66746;51.328;12.332;2023-05-10T06:26:45;9.50;;;5.20;;
77589;SDS011;66746;51.328;12.332;2023-05-10T06:29:12;15.20;;;7.70;;
77589;SDS011;66746;51.328;12.332;2023-05-10T06:31:38;4.10;;;3.28;;
77589;SDS011;66746;51.328;12.332;2023-05-10T06:34:06;61.10;;;9.65;;
77589;SDS011;66746;51.328;12.332;2023-05-10T06:36:33;4.85;;;3.38;;
77589;SDS011;66746;51.328;12.332;2023-05-10T06:38:59;4.70;;;4.18;;
77589;SDS011;66746;51.328;12.332;2023-05-10T06:41:26;5.20;;;4.20;;
77589;SDS011;66746;51.328;12.332;2023-05-10T06:43:52;6.00;;;3.50;;
77589;SDS011;66746;51.328;12.332;2023-05-10T06:46:19;4.72;;;3.63;;
77589;SDS011;66746;51.328;12.332;2023-05-10T06:48:45;4.72;;;3.47;;
77589;SDS011;66746;51.328;12.332;2023-05-10T06:51:13;6.20;;;3.63;;
77589;SDS011;66746;51.328;12.332;2023-05-10T06:53:40;4.50;;;3.42;;
77589;SDS011;66746;51.328;12.332;2023-05-10T06:56:06;4.45;;;3.42;;
77589;SDS011;66746;51.328;12.332;2023-05-10T06:58:32;5.28;;;3.65;;
77589;SDS011;66746;51.328;12.332;2023-05-10T07:01:02;6.78;;;3.83;;
77589;SDS011;66746;51.328;12.332;2023-05-10T07:03:29;6.68;;;4.95;;
77589;SDS011;66746;51.328;12.332;2023-05-10T07:05:59;7.10;;;3.78;;
77589;SDS011;66746;51.328;12.332;2023-05-10T07:08:27;6.40;;;4.00;;
77589;SDS011;66746;51.328;12.332;2023-05-10T07:10:58;8.88;;;5.32;;
77589;SDS011;66746;51.328;12.332;2023-05-10T07:13:25;4.95;;;4.00;;
77589;SDS011;66746;51.328;12.332;2023-05-10T07:15:52;5.90;;;3.70;;
77589;SDS011;66746;51.328;12.332;2023-05-10T07:18:18;4.85;;;3.58;;
77589;SDS011;66746;51.328;12.332;2023-05-10T07:20:45;4.22;;;3.75;;
77589;SDS011;66746;51.328;12.332;2023-05-10T07:23:11;8.85;;;3.40;;
77589;SDS011;66746;51.328;12.332;2023-05-10T07:25:41;4.18;;;3.75;;
77589;SDS011;66746;51.328;12.332;2023-05-10T07:28:14;6.18;;;3.80;;
77589;SDS011;66746;51.328;12.332;2023-05-10T07:30:40;6.53;;;4.15;;
77589;SDS011;66746;51.328;12.332;2023-05-10T07:33:07;4.00;;;3.60;;
77589;SDS011;66746;51.328;12.332;2023-05-10T07:35:35;6.38;;;3.78;;
77589;SDS011;66746;51.328;12.332;2023-05-10T07:38:04;5.43;;;3.80;;
77589;SDS011;66746;51.328;12.332;2023-05-10T07:40:33;5.57;;;4.05;;
77589;SDS011;66746;51.328;12.332;2023-05-10T07:43:04;5.55;;;3.92;;
77589;SDS011;66746;51.328;12.332;2023-05-10T07:45:31;4.45;;;3.65;;
77589;SDS011;66746;51.328;12.332;2023-05-10T07:47:57;5.13;;;4.03;;
77589;SDS011;66746;51.328;12.332;2023-05-10T07:50:23;6.85;;;3.92;;
77589;SDS011;66746;51.328;12.332;2023-05-10T07:52:50;4.85;;;3.28;;
77589;SDS011;66746;51.328;12.332;2023-05-10T07:55:17;4.10;;;3.67;;
77589;SDS011;66746;51.328;12.332;2023-05-10T07:57:44;7.60;;;3.92;;
77589;SDS011;66746;51.328;12.332;2023-05-10T08:00:18;5.32;;;3.97;;
77589;SDS011;66746;51.328;12.332;2023-05-10T08:02:49;6.32;;;3.78;;
77589;SDS011;66746;51.328;12.332;2023-05-10T08:05:16;5.70;;;4.10;;
77589;SDS011;66746;51.328;12.332;2023-05-10T08:07:45;5.75;;;3.95;;
77589;SDS011;66746;51.328;12.332;2023-05-10T08:10:12;8.77;;;4.10;;
77589;SDS011;66746;51.328;12.332;2023-05-10T08:12:40;6.53;;;4.30;;
77589;SDS011;66746;51.328;12.332;2023-05-10T08:15:10;4.90;;;3.38;;
77589;SDS011;66746;51.328;12.332;2023-05-10T08:17:47;3.65;;;3.15;;
77589;SDS011;66746;51.328;12.332;2023-05-10T08:20:16;5.20;;;4.15;;
77589;SDS011;66746;51.328;12.332;2023-05-10T08:22:43;5.50;;;3.88;;
77589;SDS011;66746;51.328;12.332;2023-05-10T08:25:09;5.38;;;4.03;;
77589;SDS011;66746;51.328;12.332;2023-05-10T08:27:35;6.00;;;4.47;;
77589;SDS011;66746;51.328;12.332;2023-05-10T08:30:02;6.00;;;4.53;;
77589;SDS011;66746;51.328;12.332;2023-05-10T08:32:29;4.88;;;3.95;;
77589;SDS011;66746;51.328;12.332;2023-05-10T08:34:57;9.60;;;4.63;;
77589;SDS011;66746;51.328;12.332;2023-05-10T08:37:23;6.65;;;4.65;;
77589;SDS011;66746;51.328;12.332;2023-05-10T08:39:50;5.25;;;4.10;;
77589;SDS011;66746;51.328;12.332;2023-05-10T08:42:16;5.78;;;4.40;;
77589;SDS011;66746;51.328;12.332;2023-05-10T08:44:48;6.07;;;4.72;;
77589;SDS011;66746;51.328;12.332;2023-05-10T08:47:15;6.47;;;4.15;;
77589;SDS011;66746;51.328;12.332;2023-05-10T08:49:44;5.70;;;4.97;;
77589;SDS011;66746;51.328;12.332;2023-05-10T08:52:17;5.53;;;4.93;;
77589;SDS011;66746;51.328;12.332;2023-05-10T08:54:44;5.10;;;4.00;;
77589;SDS011;66746;51.328;12.332;2023-05-10T08:57:11;6.72;;;4.78;;
77589;SDS011;66746;51.328;12.332;2023-05-10T08:59:41;7.25;;;4.72;;
77589;SDS011;66746;51.328;12.332;2023-05-10T09:02:20;6.38;;;4.70;;
77589;SDS011;66746;51.328;12.332;2023-05-10T09:04:50;7.43;;;5.85;;
77589;SDS011;66746;51.328;12.332;2023-05-10T09:07:21;7.35;;;5.78;;
77589;SDS011;66746;51.328;12.332;2023-05-10T09:09:50;8.02;;;5.60;;
77589;SDS011;66746;51.328;12.332;2023-05-10T09:12:19;7.75;;;5.75;;
77589;SDS011;66746;51.328;12.332;2023-05-10T09:14:46;7.30;;;5.53;;
77589;SDS011;66746;51.328;12.332;2023-05-10T09:17:15;6.88;;;6.03;;
77589;SDS011;66746;51.328;12.332;2023-05-10T09:19:44;8.48;;;6.00;;
77589;SDS011;66746;51.328;12.332;2023-05-10T09:22:12;8.10;;;4.95;;
77589;SDS011;66746;51.328;12.332;2023-05-10T09:24:42;9.57;;;6.32;;
77589;SDS011;66746;51.328;12.332;2023-05-10T09:27:09;8.93;;;5.97;;
77589;SDS011;66746;51.328;12.332;2023-05-10T09:29:38;8.07;;;5.80;;
77589;SDS011;66746;51.328;12.332;2023-05-10T09:32:08;10.77;;;6.82;;
77589;SDS011;66746;51.328;12.332;2023-05-10T09:34:35;10.38;;;6.85;;
77589;SDS011;66746;51.328;12.332;2023-05-10T09:37:05;7.63;;;6.10;;
77589;SDS011;66746;51.328;12.332;2023-05-10T09:39:32;8.48;;;6.20;;
77589;SDS011;66746;51.328;12.332;2023-05-10T09:42:02;10.02;;;6.50;;
77589;SDS011;66746;51.328;12.332;2023-05-10T09:44:31;7.05;;;6.35;;
77589;SDS011;66746;51.328;12.332;2023-05-10T09:46:58;8.25;;;6.97;;
77589;SDS011;66746;51.328;12.332;2023-05-10T09:49:25;8.57;;;6.10;;
77589;SDS011;66746;51.328;12.332;2023-05-10T09:52:01;8.15;;;6.47;;
77589;SDS011;66746;51.328;12.332;2023-05-10T09:54:37;9.63;;;6.72;;
77589;SDS011;66746;51.328;12.332;2023-05-10T09:57:24;9.18;;;6.53;;
77589;SDS011;66746;51.328;12.332;2023-05-10T09:59:55;8.35;;;6.82;;
77589;SDS011;66746;51.328;12.332;2023-05-10T10:03:18;9.80;;;7.45;;
77589;SDS011;66746;51.328;12.332;2023-05-10T10:05:57;8.27;;;6.82;;
77589;SDS011;66746;51.328;12.332;2023-05-10T10:09:06;8.98;;;6.50;;
77589;SDS011;66746;51.328;12.332;2023-05-10T10:11:36;9.57;;;7.57;;
77589;SDS011;66746;51.328;12.332;2023-05-10T10:14:10;8.55;;;7.05;;
77589;SDS011;66746;51.328;12.332;2023-05-10T10:23:28;10.43;;;7.35;;
77589;SDS011;66746;51.328;12.332;2023-05-10T10:25:57;10.07;;;6.65;;
77589;SDS011;66746;51.328;12.332;2023-05-10T10:28:26;8.70;;;6.93;;
77589;SDS011;66746;51.328;12.332;2023-05-10T10:31:11;9.55;;;7.70;;
77589;SDS011;66746;51.328;12.332;2023-05-10T10:33:52;9.00;;;7.90;;
77589;SDS011;66746;51.328;12.332;2023-05-10T10:36:41;9.02;;;7.07;;
77589;SDS011;66746;51.328;12.332;2023-05-10T10:42:12;10.93;;;8.35;;
77589;SDS011;66746;51.328;12.332;2023-05-10T10:48:27;9.13;;;6.75;;
77589;SDS011;66746;51.328;12.332;2023-05-10T10:51:11;9.30;;;7.22;;
77589;SDS011;66746;51.328;12.332;2023-05-10T10:53:42;10.45;;;7.40;;
77589;SDS011;66746;51.328;12.332;2023-05-10T11:07:18;10.00;;;7.00;;
77589;SDS011;66746;51.328;12.332;2023-05-10T11:09:49;12.00;;;7.90;;
77589;SDS011;66746;51.328;12.332;2023-05-10T11:12:18;8.77;;;7.88;;
77589;SDS011;66746;51.328;12.332;2023-05-10T11:15:13;11.13;;;8.13;;
77589;SDS011;66746;51.328;12.332;2023-05-10T11:21:12;12.10;;;8.73;;
77589;SDS011;66746;51.328;12.332;2023-05-10T11:24:26;10.57;;;8.27;;
77589;SDS011;66746;51.328;12.332;2023-05-10T11:26:59;11.85;;;8.40;;
77589;SDS011;66746;51.328;12.332;2023-05-10T11:29:26;12.32;;;8.88;;
77589;SDS011;66746;51.328;12.332;2023-05-10T11:31:56;12.40;;;9.20;;
77589;SDS011;66746;51.328;12.332;2023-05-10T11:34:24;12.52;;;8.13;;
77589;SDS011;66746;51.328;12.332;2023-05-10T11:37:06;10.95;;;8.00;;
77589;SDS011;66746;51.328;12.332;2023-05-10T11:39:32;12.20;;;9.35;;
77589;SDS011;66746;51.328;12.332;2023-05-10T11:42:03;10.90;;;9.05;;
77589;SDS011;66746;51.328;12.332;2023-05-10T11:44:30;11.07;;;8.80;;
77589;SDS011;66746;51.328;12.332;2023-05-10T11:46:59;13.73;;;8.38;;
77589;SDS011;66746;51.328;12.332;2023-05-10T11:49:27;13.90;;;10.45;;
77589;SDS011;66746;51.328;12.332;2023-05-10T11:52:07;11.60;;;10.13;;
77589;SDS011;66746;51.328;12.332;2023-05-10T11:54:44;12.77;;;9.60;;
77589;SDS011;66746;51.328;12.332;2023-05-10T11:57:13;11.80;;;9.02;;
77589;SDS011;66746;51.328;12.332;2023-05-10T11:59:49;12.07;;;10.23;;
77589;SDS011;66746;51.328;12.332;2023-05-10T12:02:30;11.23;;;9.75;;
77589;SDS011;66746;51.328;12.332;2023-05-10T12:05:01;11.18;;;8.95;;
77589;SDS011;66746;51.328;12.332;2023-05-10T12:07:35;13.70;;;10.13;;
77589;SDS011;66746;51.328;12.332;2023-05-10T12:10:05;13.82;;;10.20;;
77589;SDS011;66746;51.328;12.332;2023-05-10T12:12:46;12.50;;;9.07;;
77589;SDS011;66746;51.328;12.332;2023-05-10T12:15:19;11.82;;;9.98;;
77589;SDS011;66746;51.328;12.332;2023-05-10T12:17:53;13.38;;;10.35;;
77589;SDS011;66746;51.328;12.332;2023-05-10T12:20:20;11.88;;;9.50;;
77589;SDS011;66746;51.328;12.332;2023-05-10T12:23:00;13.07;;;10.82;;
77589;SDS011;66746;51.328;12.332;2023-05-10T12:25:35;11.45;;;10.30;;
77589;SDS011;66746;51.328;12.332;2023-05-10T12:28:05;11.35;;;9.98;;
77589;SDS011;66746;51.328;12.332;2023-05-10T12:30:38;12.48;;;9.32;;
77589;SDS011;66746;51.328;12.332;2023-05-10T12:33:19;14.30;;;10.82;;
77589;SDS011;66746;51.328;12.332;2023-05-10T12:35:49;10.63;;;9.52;;
77589;SDS011;66746;51.328;12.332;2023-05-10T12:38:31;11.73;;;10.38;;
77589;SDS011;66746;51.328;12.332;2023-05-10T12:41:07;10.75;;;8.90;;
77589;SDS011;66746;51.328;12.332;2023-05-10T12:43:43;11.40;;;8.65;;
77589;SDS011;66746;51.328;12.332;2023-05-10T12:46:16;9.10;;;7.93;;
77589;SDS011;66746;51.328;12.332;2023-05-10T12:48:44;10.45;;;8.38;;
77589;SDS011;66746;51.328;12.332;2023-05-10T12:51:25;10.95;;;8.13;;
77589;SDS011;66746;51.328;12.332;2023-05-10T12:54:07;10.50;;;8.88;;
77589;SDS011;66746;51.328;12.332;2023-05-10T12:56:33;10.82;;;8.63;;
77589;SDS011;66746;51.328;12.332;2023-05-10T12:59:02;10.00;;;7.35;;
77589;SDS011;66746;51.328;12.332;2023-05-10T13:01:29;9.55;;;8.50;;
77589;SDS011;66746;51.328;12.332;2023-05-10T13:04:03;12.73;;;8.85;;
77589;SDS011;66746;51.328;12.332;2023-05-10T13:06:42;9.45;;;7.00;;
77589;SDS011;66746;51.328;12.332;2023-05-10T13:09:27;9.70;;;8.40;;
77589;SDS011;66746;51.328;12.332;2023-05-10T13:12:02;9.05;;;7.45;;
77589;SDS011;66746;51.328;12.332;2023-05-10T13:14:32;8.93;;;7.13;;
77589;SDS011;66746;51.328;12.332;2023-05-10T13:16:58;8.35;;;7.30;;
77589;SDS011;66746;51.328;12.332;2023-05-10T13:22:19;7.60;;;6.80;;
77589;SDS011;66746;51.328;12.332;2023-05-10T13:25:06;8.25;;;7.45;;
77589;SDS011;66746;51.328;12.332;2023-05-10T13:27:33;11.27;;;7.47;;
77589;SDS011;66746;51.328;12.332;2023-05-10T13:30:00;10.18;;;8.00;;
77589;SDS011;66746;51.328;12.332;2023-05-10T13:32:27;9.18;;;7.82;;
77589;SDS011;66746;51.328;12.332;2023-05-10T13:34:53;10.00;;;6.72;;
77589;SDS011;66746;51.328;12.332;2023-05-10T13:37:20;8.82;;;7.93;;
77589;SDS011;66746;51.328;12.332;2023-05-10T13:39:46;9.90;;;7.40;;
77589;SDS011;66746;51.328;12.332;2023-05-10T13:42:14;8.95;;;7.55;;
77589;SDS011;66746;51.328;12.332;2023-05-10T13:44:41;9.73;;;7.80;;
77589;SDS011;66746;51.328;12.332;2023-05-10T13:47:08;8.88;;;7.43;;
77589;SDS011;66746;51.328;12.332;2023-05-10T13:49:35;8.27;;;7.45;;
77589;SDS011;66746;51.328;12.332;2023-05-10T13:52:01;8.15;;;6.75;;
77589;SDS011;66746;51.328;12.332;2023-05-10T13:54:28;8.90;;;7.40;;
77589;SDS011;66746;51.328;12.332;2023-05-10T13:56:54;9.52;;;7.43;;
77589;SDS011;66746;51.328;12.332;2023-05-10T13:59:22;5.53;;;4.45;;
77589;SDS011;66746;51.328;12.332;2023-05-10T14:01:48;2.28;;;1.85;;
77589;SDS011;66746;51.328;12.332;2023-05-10T14:04:15;1.73;;;1.42;;
77589;SDS011;66746;51.328;12.332;2023-05-10T14:06:41;2.28;;;2.08;;
77589;SDS011;66746;51.328;12.332;2023-05-10T14:09:08;2.55;;;2.33;;
77589;SDS011;66746;51.328;12.332;2023-05-10T14:11:34;3.17;;;2.90;;
77589;SDS011;66746;51.328;12.332;2023-05-10T14:14:01;3.17;;;2.58;;
77589;SDS011;66746;51.328;12.332;2023-05-10T14:16:29;2.97;;;2.15;;
77589;SDS011;66746;51.328;12.332;2023-05-10T14:18:56;3.53;;;3.22;;
77589;SDS011;66746;51.328;12.332;2023-05-10T14:21:22;5.82;;;3.08;;
77589;SDS011;66746;51.328;12.332;2023-05-10T14:23:49;6.72;;;3.58;;
77589;SDS011;66746;51.328;12.332;2023-05-10T14:26:15;4.78;;;3.17;;
77589;SDS011;66746;51.328;12.332;2023-05-10T14:28:42;5.28;;;4.10;;
77589;SDS011;66746;51.328;12.332;2023-05-10T14:31:08;6.72;;;3.88;;
77589;SDS011;66746;51.328;12.332;2023-05-10T14:33:36;6.15;;;4.85;;
77589;SDS011;66746;51.328;12.332;2023-05-10T14:36:03;6.10;;;4.70;;
77589;SDS011;66746;51.328;12.332;2023-05-10T14:38:29;5.47;;;4.60;;
77589;SDS011;66746;51.328;12.332;2023-05-10T14:40:56;5.43;;;4.57;;
77589;SDS011;66746;51.328;12.332;2023-05-10T14:43:23;6.60;;;4.25;;
77589;SDS011;66746;51.328;12.332;2023-05-10T14:45:49;6.30;;;4.55;;
77589;SDS011;66746;51.328;12.332;2023-05-10T14:48:16;5.65;;;4.55;;
77589;SDS011;66746;51.328;12.332;2023-05-10T14:50:44;5.85;;;4.28;;
77589;SDS011;66746;51.328;12.332;2023-05-10T14:53:11;3.88;;;2.88;;
77589;SDS011;66746;51.328;12.332;2023-05-10T14:55:37;3.95;;;2.65;;
77589;SDS011;66746;51.328;12.332;2023-05-10T14:58:04;3.55;;;2.15;;
77589;SDS011;66746;51.328;12.332;2023-05-10T15:00:33;8.73;;;3.05;;
77589;SDS011;66746;51.328;12.332;2023-05-10T15:03:00;6.43;;;2.55;;
77589;SDS011;66746;51.328;12.332;2023-05-10T15:05:28;4.15;;;2.90;;
77589;SDS011;66746;51.328;12.332;2023-05-10T15:07:56;7.72;;;3.20;;
77589;SDS011;66746;51.328;12.332;2023-05-10T15:10:23;4.07;;;3.08;;
77589;SDS011;66746;51.328;12.332;2023-05-10T15:12:49;4.35;;;2.42;;
77589;SDS011;66746;51.328;12.332;2023-05-10T15:15:16;3.85;;;2.00;;
77589;SDS011;66746;51.328;12.332;2023-05-10T15:17:43;2.95;;;2.28;;
77589;SDS011;66746;51.328;12.332;2023-05-10T15:20:10;3.80;;;2.95;;